This is the latest recevied weather packets stored in our database for station/object N4MGC. If no packets are shown the sender has not sent any weather packets the latest 10 day(s).
| Time | Temp. | Humidity | Pressure | Rain* | Wind** | Luminosity | Snow |
|---|---|---|---|---|---|---|---|
| 1777603410 | 13.89° C | 95% | 1014.7 hPa | 0 mm | - | 0 W/m² | - |
| 1777603105 | 13.89° C | 95% | 1014.8 hPa | 0 mm | - | 0 W/m² | - |
| 1777602800 | 13.89° C | 95% | 1014.8 hPa | 0 mm | - | 0 W/m² | - |
| 1777602495 | 13.89° C | 94% | 1014.4 hPa | 0 mm | - | 0 W/m² | - |
| 1777602192 | 13.89° C | 94% | 1014.4 hPa | 0 mm | - | 0 W/m² | - |
| 1777601888 | 13.89° C | 93% | 1014.4 hPa | 0 mm | - | 0 W/m² | - |
| 1777601583 | 13.89° C | 93% | 1014.3 hPa | 0 mm | - | 0 W/m² | - |
| 1777601278 | 13.89° C | 93% | 1014.4 hPa | 0 mm | - | 0 W/m² | - |
| 1777600672 | 13.89° C | 92% | 1014 hPa | 0 mm | - | 0 W/m² | - |
| 1777600368 | 13.89° C | 92% | 1014 hPa | 0 mm | - | 0 W/m² | - |
| 1777587309 | 19.44° C | 60% | 1013.2 hPa | 0 mm | - | 133 W/m² | - |
| 1777586396 | 19.44° C | 58% | 1013.3 hPa | 0 mm | - | 194 W/m² | - |
| 1777584578 | 20° C | 55% | 1013.7 hPa | 0 mm | - | 195 W/m² | - |
| 1777584274 | 20° C | 54% | 1013.4 hPa | 0 mm | - | 200 W/m² | - |
| 1777583969 | 20° C | 58% | 1013.4 hPa | 0 mm | - | 278 W/m² | - |
| 1777583665 | 20° C | 57% | 1013.6 hPa | 0 mm | - | 271 W/m² | - |
| 1777583364 | 20° C | 59% | 1013.6 hPa | 0 mm | - | 259 W/m² | - |
| 1777582151 | 20° C | 55% | 1013.3 hPa | 0 mm | - | 248 W/m² | - |
| 1777581245 | 21.11° C | 58% | 1013.4 hPa | 0 mm | - | 522 W/m² | - |
| 1777580945 | 21.11° C | 55% | 1013.4 hPa | 0 mm | - | 502 W/m² | - |
| 1777580639 | 21.11° C | 57% | 1013.3 hPa | 0 mm | - | 441 W/m² | - |
| 1777580335 | 20.56° C | 56% | 1013.4 hPa | 0 mm | - | 497 W/m² | - |
| 1777580032 | 20.56° C | 57% | 1013.3 hPa | 0 mm | - | 427 W/m² | - |
| 1777579728 | 20.56° C | 56% | 1013.6 hPa | 0 mm | - | 402 W/m² | - |
| 1777579426 | 21.11° C | 55% | 1013.9 hPa | 0 mm | - | 426 W/m² | - |
* Rain latest hour (hover to see other rain measurements)
** Current wind speed in m/s (hover to see current wind gust speed)